< < Back
Terminal Aerodrome Forecast


Current Version              Previous Versions:   1  2  3  4  5  6  7  8  9  

Terminal Aerodrome Forecast

971
FTUS42 KJAX 112323
TAFSSI
TAF
KSSI 112323Z 1200/1224 18008KT P6SM SKC
     FM120700 22006KT 6SM BR SCT007 BKN025
     FM120900 23005KT 4SM BR BKN007 OVC015
     FM121400 23010KT P6SM BKN015 BKN250
     FM121600 24010G18KT P6SM SCT030 BKN250=



Latest METAR

418
SAUS70 KWBC 120100 RRC
MTRSSI
METAR KSSI 120053Z AUTO 17008KT 10SM CLR 12/10 A3018 RMK AO2 SLP221
T01170100


USA.gov is the U.S. government's official web portal to all federal, state and local government web resources and services.